sensor_id;sensor_type;location;lat;lon;timestamp;P1;durP1;ratioP1;P2;durP2;ratioP2
25127;SDS011;13107;51.304;6.866;2024-01-07T00:02:11;22.30;;;12.90;;
25127;SDS011;13107;51.304;6.866;2024-01-07T00:06:12;20.65;;;12.05;;
25127;SDS011;13107;51.304;6.866;2024-01-07T00:10:14;19.67;;;11.70;;
25127;SDS011;13107;51.304;6.866;2024-01-07T00:14:16;20.62;;;11.60;;
25127;SDS011;13107;51.304;6.866;2024-01-07T00:18:18;18.20;;;11.93;;
25127;SDS011;13107;51.304;6.866;2024-01-07T00:22:20;18.17;;;11.18;;
25127;SDS011;13107;51.304;6.866;2024-01-07T00:26:21;19.73;;;11.60;;
25127;SDS011;13107;51.304;6.866;2024-01-07T00:30:23;20.70;;;12.40;;
25127;SDS011;13107;51.304;6.866;2024-01-07T00:34:25;21.35;;;11.80;;
25127;SDS011;13107;51.304;6.866;2024-01-07T00:38:27;18.80;;;11.43;;
25127;SDS011;13107;51.304;6.866;2024-01-07T00:42:29;18.33;;;11.48;;
25127;SDS011;13107;51.304;6.866;2024-01-07T00:46:31;19.70;;;11.98;;
25127;SDS011;13107;51.304;6.866;2024-01-07T00:50:32;17.17;;;11.55;;
25127;SDS011;13107;51.304;6.866;2024-01-07T00:54:34;19.62;;;11.85;;
25127;SDS011;13107;51.304;6.866;2024-01-07T00:58:36;19.60;;;11.50;;
25127;SDS011;13107;51.304;6.866;2024-01-07T01:02:38;22.48;;;13.00;;
25127;SDS011;13107;51.304;6.866;2024-01-07T01:06:40;20.52;;;12.37;;
25127;SDS011;13107;51.304;6.866;2024-01-07T01:10:42;23.75;;;13.57;;
25127;SDS011;13107;51.304;6.866;2024-01-07T01:14:44;23.90;;;13.50;;
25127;SDS011;13107;51.304;6.866;2024-01-07T01:18:46;21.87;;;13.65;;
25127;SDS011;13107;51.304;6.866;2024-01-07T01:22:47;22.40;;;13.05;;
25127;SDS011;13107;51.304;6.866;2024-01-07T01:26:49;19.55;;;12.20;;
25127;SDS011;13107;51.304;6.866;2024-01-07T01:30:51;20.52;;;12.25;;
25127;SDS011;13107;51.304;6.866;2024-01-07T01:34:53;21.77;;;12.00;;
25127;SDS011;13107;51.304;6.866;2024-01-07T01:38:55;18.92;;;11.65;;
25127;SDS011;13107;51.304;6.866;2024-01-07T01:42:56;23.48;;;12.50;;
25127;SDS011;13107;51.304;6.866;2024-01-07T01:46:58;20.83;;;12.27;;
25127;SDS011;13107;51.304;6.866;2024-01-07T01:51:01;19.45;;;11.12;;
25127;SDS011;13107;51.304;6.866;2024-01-07T01:55:04;22.95;;;12.20;;
25127;SDS011;13107;51.304;6.866;2024-01-07T01:59:06;21.73;;;12.20;;
25127;SDS011;13107;51.304;6.866;2024-01-07T02:03:09;19.52;;;11.65;;
25127;SDS011;13107;51.304;6.866;2024-01-07T02:07:11;18.67;;;12.85;;
25127;SDS011;13107;51.304;6.866;2024-01-07T02:11:13;20.73;;;12.63;;
25127;SDS011;13107;51.304;6.866;2024-01-07T02:15:18;21.92;;;13.00;;
25127;SDS011;13107;51.304;6.866;2024-01-07T02:19:21;22.05;;;12.40;;
25127;SDS011;13107;51.304;6.866;2024-01-07T02:23:23;20.77;;;12.32;;
25127;SDS011;13107;51.304;6.866;2024-01-07T02:27:25;22.35;;;11.95;;
25127;SDS011;13107;51.304;6.866;2024-01-07T02:31:26;24.63;;;13.43;;
25127;SDS011;13107;51.304;6.866;2024-01-07T02:35:28;23.35;;;13.18;;
25127;SDS011;13107;51.304;6.866;2024-01-07T02:39:30;26.60;;;13.68;;
25127;SDS011;13107;51.304;6.866;2024-01-07T02:43:32;26.27;;;14.65;;
25127;SDS011;13107;51.304;6.866;2024-01-07T02:47:35;25.48;;;13.30;;
25127;SDS011;13107;51.304;6.866;2024-01-07T02:51:36;25.55;;;14.02;;
25127;SDS011;13107;51.304;6.866;2024-01-07T02:55:38;26.52;;;14.15;;
25127;SDS011;13107;51.304;6.866;2024-01-07T02:59:40;26.55;;;13.35;;
25127;SDS011;13107;51.304;6.866;2024-01-07T03:03:41;25.02;;;13.52;;
25127;SDS011;13107;51.304;6.866;2024-01-07T03:07:43;24.35;;;13.65;;
25127;SDS011;13107;51.304;6.866;2024-01-07T03:11:45;24.20;;;14.40;;
25127;SDS011;13107;51.304;6.866;2024-01-07T03:15:47;24.87;;;13.93;;
25127;SDS011;13107;51.304;6.866;2024-01-07T03:19:48;23.75;;;13.80;;
25127;SDS011;13107;51.304;6.866;2024-01-07T03:23:50;22.48;;;13.82;;
25127;SDS011;13107;51.304;6.866;2024-01-07T03:27:52;21.85;;;13.32;;
25127;SDS011;13107;51.304;6.866;2024-01-07T03:31:54;21.30;;;11.82;;
25127;SDS011;13107;51.304;6.866;2024-01-07T03:35:56;19.48;;;11.38;;
25127;SDS011;13107;51.304;6.866;2024-01-07T03:39:57;20.48;;;12.13;;
25127;SDS011;13107;51.304;6.866;2024-01-07T03:43:59;18.65;;;11.35;;
25127;SDS011;13107;51.304;6.866;2024-01-07T03:48:01;19.73;;;12.07;;
25127;SDS011;13107;51.304;6.866;2024-01-07T03:52:04;21.27;;;13.10;;
25127;SDS011;13107;51.304;6.866;2024-01-07T03:56:07;21.92;;;12.32;;
25127;SDS011;13107;51.304;6.866;2024-01-07T04:00:09;24.75;;;14.15;;
25127;SDS011;13107;51.304;6.866;2024-01-07T04:04:11;20.52;;;12.68;;
25127;SDS011;13107;51.304;6.866;2024-01-07T04:08:14;26.20;;;13.65;;
25127;SDS011;13107;51.304;6.866;2024-01-07T04:12:19;24.00;;;14.82;;
25127;SDS011;13107;51.304;6.866;2024-01-07T04:16:21;24.33;;;14.00;;
25127;SDS011;13107;51.304;6.866;2024-01-07T04:20:22;23.17;;;13.88;;
25127;SDS011;13107;51.304;6.866;2024-01-07T04:24:25;22.98;;;14.05;;
25127;SDS011;13107;51.304;6.866;2024-01-07T04:28:27;24.90;;;14.55;;
25127;SDS011;13107;51.304;6.866;2024-01-07T04:32:28;25.50;;;14.18;;
25127;SDS011;13107;51.304;6.866;2024-01-07T04:36:30;23.33;;;14.35;;
25127;SDS011;13107;51.304;6.866;2024-01-07T04:40:32;26.45;;;15.25;;
25127;SDS011;13107;51.304;6.866;2024-01-07T04:44:34;22.08;;;13.73;;
25127;SDS011;13107;51.304;6.866;2024-01-07T04:48:36;25.15;;;14.73;;
25127;SDS011;13107;51.304;6.866;2024-01-07T04:52:38;24.73;;;14.27;;
25127;SDS011;13107;51.304;6.866;2024-01-07T04:56:39;23.92;;;14.68;;
25127;SDS011;13107;51.304;6.866;2024-01-07T05:00:41;25.70;;;14.15;;
25127;SDS011;13107;51.304;6.866;2024-01-07T05:04:43;21.48;;;12.85;;
25127;SDS011;13107;51.304;6.866;2024-01-07T05:08:45;23.83;;;13.93;;
25127;SDS011;13107;51.304;6.866;2024-01-07T05:12:46;21.20;;;14.00;;
25127;SDS011;13107;51.304;6.866;2024-01-07T05:16:48;22.40;;;14.02;;
25127;SDS011;13107;51.304;6.866;2024-01-07T05:20:50;22.02;;;14.23;;
25127;SDS011;13107;51.304;6.866;2024-01-07T05:24:52;20.85;;;13.07;;
25127;SDS011;13107;51.304;6.866;2024-01-07T05:28:54;24.55;;;14.45;;
25127;SDS011;13107;51.304;6.866;2024-01-07T05:32:56;18.58;;;13.07;;
25127;SDS011;13107;51.304;6.866;2024-01-07T05:36:57;19.83;;;11.63;;
25127;SDS011;13107;51.304;6.866;2024-01-07T05:41:00;18.37;;;11.77;;
25127;SDS011;13107;51.304;6.866;2024-01-07T05:45:02;19.77;;;12.93;;
25127;SDS011;13107;51.304;6.866;2024-01-07T05:49:04;21.08;;;13.00;;
25127;SDS011;13107;51.304;6.866;2024-01-07T05:53:06;18.87;;;12.20;;
25127;SDS011;13107;51.304;6.866;2024-01-07T05:57:08;22.87;;;14.50;;
25127;SDS011;13107;51.304;6.866;2024-01-07T06:01:09;24.00;;;14.32;;
25127;SDS011;13107;51.304;6.866;2024-01-07T06:05:12;23.92;;;14.25;;
25127;SDS011;13107;51.304;6.866;2024-01-07T06:09:14;22.40;;;13.85;;
25127;SDS011;13107;51.304;6.866;2024-01-07T06:13:16;23.08;;;13.98;;
25127;SDS011;13107;51.304;6.866;2024-01-07T06:17:17;23.25;;;14.23;;
25127;SDS011;13107;51.304;6.866;2024-01-07T06:21:19;24.10;;;13.65;;
25127;SDS011;13107;51.304;6.866;2024-01-07T06:25:21;24.08;;;14.50;;
25127;SDS011;13107;51.304;6.866;2024-01-07T06:29:23;23.50;;;13.35;;
25127;SDS011;13107;51.304;6.866;2024-01-07T06:33:24;23.15;;;14.60;;
25127;SDS011;13107;51.304;6.866;2024-01-07T06:37:26;22.27;;;14.20;;
25127;SDS011;13107;51.304;6.866;2024-01-07T06:41:30;22.42;;;14.00;;
25127;SDS011;13107;51.304;6.866;2024-01-07T06:45:32;23.87;;;14.40;;
25127;SDS011;13107;51.304;6.866;2024-01-07T06:49:33;24.98;;;15.32;;
25127;SDS011;13107;51.304;6.866;2024-01-07T06:53:35;22.67;;;14.27;;
25127;SDS011;13107;51.304;6.866;2024-01-07T06:57:37;26.85;;;15.50;;
25127;SDS011;13107;51.304;6.866;2024-01-07T07:01:39;27.70;;;15.80;;
25127;SDS011;13107;51.304;6.866;2024-01-07T07:05:41;28.40;;;16.58;;
25127;SDS011;13107;51.304;6.866;2024-01-07T07:09:43;27.75;;;15.57;;
25127;SDS011;13107;51.304;6.866;2024-01-07T07:13:44;25.37;;;15.55;;
25127;SDS011;13107;51.304;6.866;2024-01-07T07:17:46;26.62;;;15.95;;
25127;SDS011;13107;51.304;6.866;2024-01-07T07:21:48;28.60;;;16.75;;
25127;SDS011;13107;51.304;6.866;2024-01-07T07:25:49;29.52;;;16.90;;
25127;SDS011;13107;51.304;6.866;2024-01-07T07:29:51;30.37;;;16.98;;
25127;SDS011;13107;51.304;6.866;2024-01-07T07:33:53;32.92;;;17.55;;
25127;SDS011;13107;51.304;6.866;2024-01-07T07:37:55;27.73;;;16.73;;
25127;SDS011;13107;51.304;6.866;2024-01-07T07:41:57;32.33;;;18.10;;
25127;SDS011;13107;51.304;6.866;2024-01-07T07:45:58;30.90;;;17.27;;
25127;SDS011;13107;51.304;6.866;2024-01-07T07:50:02;31.62;;;17.20;;
25127;SDS011;13107;51.304;6.866;2024-01-07T07:54:05;28.95;;;16.87;;
25127;SDS011;13107;51.304;6.866;2024-01-07T07:58:06;34.60;;;19.55;;
25127;SDS011;13107;51.304;6.866;2024-01-07T08:02:09;35.90;;;19.23;;
25127;SDS011;13107;51.304;6.866;2024-01-07T08:06:11;33.80;;;19.17;;
25127;SDS011;13107;51.304;6.866;2024-01-07T08:10:13;30.37;;;17.87;;
25127;SDS011;13107;51.304;6.866;2024-01-07T08:14:15;32.70;;;17.33;;
25127;SDS011;13107;51.304;6.866;2024-01-07T08:18:16;30.73;;;16.70;;
25127;SDS011;13107;51.304;6.866;2024-01-07T08:22:18;27.87;;;16.70;;
25127;SDS011;13107;51.304;6.866;2024-01-07T08:26:20;30.60;;;16.98;;
25127;SDS011;13107;51.304;6.866;2024-01-07T08:30:22;26.20;;;15.43;;
25127;SDS011;13107;51.304;6.866;2024-01-07T08:34:25;18.55;;;12.23;;
25127;SDS011;13107;51.304;6.866;2024-01-07T08:38:28;20.70;;;12.73;;
25127;SDS011;13107;51.304;6.866;2024-01-07T08:42:29;16.80;;;11.85;;
25127;SDS011;13107;51.304;6.866;2024-01-07T08:46:31;20.60;;;13.18;;
25127;SDS011;13107;51.304;6.866;2024-01-07T08:50:33;14.32;;;9.68;;
25127;SDS011;13107;51.304;6.866;2024-01-07T08:54:35;17.87;;;12.30;;
25127;SDS011;13107;51.304;6.866;2024-01-07T08:58:36;18.90;;;11.85;;
25127;SDS011;13107;51.304;6.866;2024-01-07T09:02:38;18.50;;;11.77;;
25127;SDS011;13107;51.304;6.866;2024-01-07T09:06:44;19.80;;;12.15;;
25127;SDS011;13107;51.304;6.866;2024-01-07T09:10:46;17.30;;;12.20;;
25127;SDS011;13107;51.304;6.866;2024-01-07T09:14:48;16.87;;;10.80;;
25127;SDS011;13107;51.304;6.866;2024-01-07T09:18:50;20.25;;;11.85;;
25127;SDS011;13107;51.304;6.866;2024-01-07T09:22:52;18.60;;;11.10;;
25127;SDS011;13107;51.304;6.866;2024-01-07T09:26:54;17.92;;;10.90;;
25127;SDS011;13107;51.304;6.866;2024-01-07T09:30:58;20.90;;;11.00;;
25127;SDS011;13107;51.304;6.866;2024-01-07T09:35:00;18.87;;;12.05;;
25127;SDS011;13107;51.304;6.866;2024-01-07T09:39:02;20.27;;;12.07;;
25127;SDS011;13107;51.304;6.866;2024-01-07T09:43:06;21.60;;;12.63;;
25127;SDS011;13107;51.304;6.866;2024-01-07T09:47:12;19.80;;;12.05;;
25127;SDS011;13107;51.304;6.866;2024-01-07T09:51:14;17.70;;;11.73;;
25127;SDS011;13107;51.304;6.866;2024-01-07T09:55:22;16.75;;;11.15;;
25127;SDS011;13107;51.304;6.866;2024-01-07T09:59:29;21.98;;;11.50;;
25127;SDS011;13107;51.304;6.866;2024-01-07T10:03:31;18.80;;;11.57;;
25127;SDS011;13107;51.304;6.866;2024-01-07T10:07:33;16.90;;;11.65;;
25127;SDS011;13107;51.304;6.866;2024-01-07T10:11:35;17.73;;;11.23;;
25127;SDS011;13107;51.304;6.866;2024-01-07T10:15:37;17.05;;;10.80;;
25127;SDS011;13107;51.304;6.866;2024-01-07T10:19:39;17.42;;;11.68;;
25127;SDS011;13107;51.304;6.866;2024-01-07T10:23:42;18.15;;;11.25;;
25127;SDS011;13107;51.304;6.866;2024-01-07T10:27:44;16.08;;;10.63;;
25127;SDS011;13107;51.304;6.866;2024-01-07T10:31:45;15.65;;;9.90;;
25127;SDS011;13107;51.304;6.866;2024-01-07T10:36:00;17.15;;;10.32;;
25127;SDS011;13107;51.304;6.866;2024-01-07T10:40:07;17.10;;;9.75;;
25127;SDS011;13107;51.304;6.866;2024-01-07T10:44:12;14.13;;;9.40;;
25127;SDS011;13107;51.304;6.866;2024-01-07T10:48:15;17.02;;;9.50;;
25127;SDS011;13107;51.304;6.866;2024-01-07T10:52:19;13.20;;;9.07;;
25127;SDS011;13107;51.304;6.866;2024-01-07T10:56:22;13.57;;;8.88;;
25127;SDS011;13107;51.304;6.866;2024-01-07T11:00:25;16.00;;;8.80;;
25127;SDS011;13107;51.304;6.866;2024-01-07T11:04:32;12.48;;;8.77;;
25127;SDS011;13107;51.304;6.866;2024-01-07T11:09:06;16.02;;;8.70;;
25127;SDS011;13107;51.304;6.866;2024-01-07T11:13:36;11.55;;;7.93;;
25127;SDS011;13107;51.304;6.866;2024-01-07T11:17:40;15.20;;;8.85;;
25127;SDS011;13107;51.304;6.866;2024-01-07T11:21:47;16.75;;;10.45;;
25127;SDS011;13107;51.304;6.866;2024-01-07T11:25:49;18.55;;;10.30;;
25127;SDS011;13107;51.304;6.866;2024-01-07T11:29:57;15.18;;;9.75;;
25127;SDS011;13107;51.304;6.866;2024-01-07T11:34:02;17.20;;;10.60;;
25127;SDS011;13107;51.304;6.866;2024-01-07T11:38:04;14.27;;;9.77;;
25127;SDS011;13107;51.304;6.866;2024-01-07T11:42:06;13.65;;;9.55;;
25127;SDS011;13107;51.304;6.866;2024-01-07T11:46:08;14.73;;;8.63;;
25127;SDS011;13107;51.304;6.866;2024-01-07T11:50:10;15.43;;;7.97;;
25127;SDS011;13107;51.304;6.866;2024-01-07T11:54:11;15.00;;;7.70;;
25127;SDS011;13107;51.304;6.866;2024-01-07T11:58:13;9.55;;;6.93;;
25127;SDS011;13107;51.304;6.866;2024-01-07T12:02:15;10.95;;;6.45;;
25127;SDS011;13107;51.304;6.866;2024-01-07T12:06:18;13.18;;;6.20;;
25127;SDS011;13107;51.304;6.866;2024-01-07T12:10:21;12.98;;;6.47;;
25127;SDS011;13107;51.304;6.866;2024-01-07T12:14:23;9.90;;;5.75;;
25127;SDS011;13107;51.304;6.866;2024-01-07T12:18:25;8.32;;;5.72;;
25127;SDS011;13107;51.304;6.866;2024-01-07T12:22:27;9.05;;;6.57;;
25127;SDS011;13107;51.304;6.866;2024-01-07T12:26:29;11.75;;;5.82;;
25127;SDS011;13107;51.304;6.866;2024-01-07T12:30:32;6.47;;;3.83;;
25127;SDS011;13107;51.304;6.866;2024-01-07T12:34:34;7.15;;;4.07;;
25127;SDS011;13107;51.304;6.866;2024-01-07T12:38:37;5.93;;;3.75;;
25127;SDS011;13107;51.304;6.866;2024-01-07T12:42:39;5.30;;;3.95;;
25127;SDS011;13107;51.304;6.866;2024-01-07T12:50:49;6.80;;;3.30;;
25127;SDS011;13107;51.304;6.866;2024-01-07T12:54:51;4.90;;;3.25;;
25127;SDS011;13107;51.304;6.866;2024-01-07T12:58:53;9.27;;;3.60;;
25127;SDS011;13107;51.304;6.866;2024-01-07T13:02:55;5.40;;;3.25;;
25127;SDS011;13107;51.304;6.866;2024-01-07T13:07:01;5.75;;;3.28;;
25127;SDS011;13107;51.304;6.866;2024-01-07T13:11:03;6.70;;;3.10;;
25127;SDS011;13107;51.304;6.866;2024-01-07T13:15:05;3.55;;;2.40;;
25127;SDS011;13107;51.304;6.866;2024-01-07T13:19:07;4.62;;;2.80;;
25127;SDS011;13107;51.304;6.866;2024-01-07T13:23:12;5.85;;;3.33;;
25127;SDS011;13107;51.304;6.866;2024-01-07T13:27:13;4.95;;;2.83;;
25127;SDS011;13107;51.304;6.866;2024-01-07T13:31:15;4.80;;;2.97;;
25127;SDS011;13107;51.304;6.866;2024-01-07T13:35:17;5.93;;;3.10;;
25127;SDS011;13107;51.304;6.866;2024-01-07T13:39:19;7.43;;;3.20;;
25127;SDS011;13107;51.304;6.866;2024-01-07T13:43:22;4.75;;;2.47;;
25127;SDS011;13107;51.304;6.866;2024-01-07T13:47:26;6.10;;;2.65;;
25127;SDS011;13107;51.304;6.866;2024-01-07T13:51:29;4.07;;;2.53;;
25127;SDS011;13107;51.304;6.866;2024-01-07T13:55:30;5.90;;;3.03;;
25127;SDS011;13107;51.304;6.866;2024-01-07T13:59:32;7.45;;;3.08;;
25127;SDS011;13107;51.304;6.866;2024-01-07T14:03:34;2.50;;;1.83;;
25127;SDS011;13107;51.304;6.866;2024-01-07T14:07:36;3.15;;;2.00;;
25127;SDS011;13107;51.304;6.866;2024-01-07T14:11:38;3.05;;;2.20;;
25127;SDS011;13107;51.304;6.866;2024-01-07T14:15:39;5.95;;;2.50;;
25127;SDS011;13107;51.304;6.866;2024-01-07T14:19:41;3.97;;;2.20;;
25127;SDS011;13107;51.304;6.866;2024-01-07T14:23:45;4.32;;;2.00;;
25127;SDS011;13107;51.304;6.866;2024-01-07T14:27:46;4.43;;;2.17;;
25127;SDS011;13107;51.304;6.866;2024-01-07T14:31:48;3.72;;;1.90;;
25127;SDS011;13107;51.304;6.866;2024-01-07T14:35:51;5.37;;;2.20;;
25127;SDS011;13107;51.304;6.866;2024-01-07T14:39:52;3.53;;;2.28;;
25127;SDS011;13107;51.304;6.866;2024-01-07T14:43:54;4.20;;;2.12;;
25127;SDS011;13107;51.304;6.866;2024-01-07T14:47:56;3.87;;;1.77;;
25127;SDS011;13107;51.304;6.866;2024-01-07T14:51:58;3.20;;;1.95;;
25127;SDS011;13107;51.304;6.866;2024-01-07T14:56:00;3.05;;;2.00;;
25127;SDS011;13107;51.304;6.866;2024-01-07T15:00:02;3.75;;;2.30;;
25127;SDS011;13107;51.304;6.866;2024-01-07T15:04:06;6.43;;;2.22;;
25127;SDS011;13107;51.304;6.866;2024-01-07T15:08:08;3.08;;;2.10;;
25127;SDS011;13107;51.304;6.866;2024-01-07T15:12:14;3.47;;;1.83;;
25127;SDS011;13107;51.304;6.866;2024-01-07T15:16:16;5.12;;;2.05;;
25127;SDS011;13107;51.304;6.866;2024-01-07T15:20:18;4.28;;;2.62;;
25127;SDS011;13107;51.304;6.866;2024-01-07T15:24:19;4.00;;;1.48;;
25127;SDS011;13107;51.304;6.866;2024-01-07T15:28:21;3.17;;;1.75;;
25127;SDS011;13107;51.304;6.866;2024-01-07T15:32:23;3.92;;;1.73;;
25127;SDS011;13107;51.304;6.866;2024-01-07T15:36:27;3.62;;;1.58;;
25127;SDS011;13107;51.304;6.866;2024-01-07T15:40:29;2.95;;;1.70;;
25127;SDS011;13107;51.304;6.866;2024-01-07T15:44:32;2.30;;;1.42;;
25127;SDS011;13107;51.304;6.866;2024-01-07T15:48:34;1.70;;;1.15;;
25127;SDS011;13107;51.304;6.866;2024-01-07T15:52:36;3.25;;;1.10;;
25127;SDS011;13107;51.304;6.866;2024-01-07T15:56:38;2.47;;;1.30;;
25127;SDS011;13107;51.304;6.866;2024-01-07T16:00:40;1.80;;;0.90;;
25127;SDS011;13107;51.304;6.866;2024-01-07T16:04:42;1.67;;;1.20;;
25127;SDS011;13107;51.304;6.866;2024-01-07T16:08:43;4.20;;;1.67;;
25127;SDS011;13107;51.304;6.866;2024-01-07T16:12:45;3.45;;;1.65;;
25127;SDS011;13107;51.304;6.866;2024-01-07T16:16:47;3.53;;;1.23;;
25127;SDS011;13107;51.304;6.866;2024-01-07T16:20:49;5.25;;;1.92;;
25127;SDS011;13107;51.304;6.866;2024-01-07T16:24:51;2.20;;;0.98;;
25127;SDS011;13107;51.304;6.866;2024-01-07T16:28:52;2.20;;;1.27;;
25127;SDS011;13107;51.304;6.866;2024-01-07T16:32:54;3.65;;;1.85;;
25127;SDS011;13107;51.304;6.866;2024-01-07T16:36:56;2.40;;;1.50;;
25127;SDS011;13107;51.304;6.866;2024-01-07T16:40:58;2.22;;;1.40;;
25127;SDS011;13107;51.304;6.866;2024-01-07T16:44:59;2.78;;;1.40;;
25127;SDS011;13107;51.304;6.866;2024-01-07T16:49:02;2.85;;;1.30;;
25127;SDS011;13107;51.304;6.866;2024-01-07T16:53:07;2.70;;;1.02;;
25127;SDS011;13107;51.304;6.866;2024-01-07T16:57:09;3.08;;;1.23;;
25127;SDS011;13107;51.304;6.866;2024-01-07T17:01:11;3.92;;;1.67;;
25127;SDS011;13107;51.304;6.866;2024-01-07T17:05:12;2.62;;;1.77;;
25127;SDS011;13107;51.304;6.866;2024-01-07T17:09:15;3.03;;;1.67;;
25127;SDS011;13107;51.304;6.866;2024-01-07T17:13:18;3.30;;;1.55;;
25127;SDS011;13107;51.304;6.866;2024-01-07T17:17:20;5.05;;;2.15;;
25127;SDS011;13107;51.304;6.866;2024-01-07T17:21:22;6.35;;;2.95;;
25127;SDS011;13107;51.304;6.866;2024-01-07T17:25:23;2.87;;;1.90;;
25127;SDS011;13107;51.304;6.866;2024-01-07T17:29:25;2.95;;;1.92;;
25127;SDS011;13107;51.304;6.866;2024-01-07T17:33:27;3.25;;;1.70;;
25127;SDS011;13107;51.304;6.866;2024-01-07T17:37:29;1.90;;;1.37;;
25127;SDS011;13107;51.304;6.866;2024-01-07T17:41:31;4.43;;;2.10;;
25127;SDS011;13107;51.304;6.866;2024-01-07T17:45:33;2.90;;;1.58;;
25127;SDS011;13107;51.304;6.866;2024-01-07T17:49:35;3.45;;;1.90;;
25127;SDS011;13107;51.304;6.866;2024-01-07T17:53:37;5.68;;;2.30;;
25127;SDS011;13107;51.304;6.866;2024-01-07T17:57:50;4.37;;;2.22;;
25127;SDS011;13107;51.304;6.866;2024-01-07T18:01:52;3.42;;;2.15;;
25127;SDS011;13107;51.304;6.866;2024-01-07T18:05:56;7.30;;;4.50;;
25127;SDS011;13107;51.304;6.866;2024-01-07T18:09:59;6.97;;;3.28;;
25127;SDS011;13107;51.304;6.866;2024-01-07T18:14:01;6.30;;;3.00;;
25127;SDS011;13107;51.304;6.866;2024-01-07T18:18:03;11.75;;;7.87;;
25127;SDS011;13107;51.304;6.866;2024-01-07T18:22:06;6.18;;;4.35;;
25127;SDS011;13107;51.304;6.866;2024-01-07T18:26:08;10.82;;;6.20;;
25127;SDS011;13107;51.304;6.866;2024-01-07T18:30:12;4.10;;;2.42;;
25127;SDS011;13107;51.304;6.866;2024-01-07T18:34:14;44.40;;;22.48;;
25127;SDS011;13107;51.304;6.866;2024-01-07T18:38:15;12.52;;;4.93;;
25127;SDS011;13107;51.304;6.866;2024-01-07T18:42:17;12.00;;;6.00;;
25127;SDS011;13107;51.304;6.866;2024-01-07T18:46:20;13.95;;;8.75;;
25127;SDS011;13107;51.304;6.866;2024-01-07T18:50:22;21.87;;;15.48;;
25127;SDS011;13107;51.304;6.866;2024-01-07T18:54:23;6.47;;;4.65;;
25127;SDS011;13107;51.304;6.866;2024-01-07T18:58:25;8.57;;;5.57;;
25127;SDS011;13107;51.304;6.866;2024-01-07T19:02:27;16.92;;;8.75;;
25127;SDS011;13107;51.304;6.866;2024-01-07T19:06:29;7.85;;;3.20;;
25127;SDS011;13107;51.304;6.866;2024-01-07T19:10:31;10.50;;;5.10;;
25127;SDS011;13107;51.304;6.866;2024-01-07T19:14:33;5.55;;;2.95;;
25127;SDS011;13107;51.304;6.866;2024-01-07T19:18:39;3.90;;;3.03;;
25127;SDS011;13107;51.304;6.866;2024-01-07T19:22:41;5.90;;;3.03;;
25127;SDS011;13107;51.304;6.866;2024-01-07T19:26:43;7.70;;;3.12;;
25127;SDS011;13107;51.304;6.866;2024-01-07T19:30:46;4.85;;;3.28;;
25127;SDS011;13107;51.304;6.866;2024-01-07T19:34:49;5.68;;;3.12;;
25127;SDS011;13107;51.304;6.866;2024-01-07T19:38:53;4.78;;;3.05;;
25127;SDS011;13107;51.304;6.866;2024-01-07T19:42:57;6.18;;;3.67;;
25127;SDS011;13107;51.304;6.866;2024-01-07T19:46:59;7.80;;;3.25;;
25127;SDS011;13107;51.304;6.866;2024-01-07T19:51:00;5.25;;;3.22;;
25127;SDS011;13107;51.304;6.866;2024-01-07T19:55:02;6.28;;;2.92;;
25127;SDS011;13107;51.304;6.866;2024-01-07T19:59:04;4.43;;;2.95;;
25127;SDS011;13107;51.304;6.866;2024-01-07T20:03:06;18.90;;;14.32;;
25127;SDS011;13107;51.304;6.866;2024-01-07T20:07:08;7.97;;;4.65;;
25127;SDS011;13107;51.304;6.866;2024-01-07T20:15:20;7.25;;;3.40;;
25127;SDS011;13107;51.304;6.866;2024-01-07T20:19:22;7.22;;;3.87;;
25127;SDS011;13107;51.304;6.866;2024-01-07T20:23:24;5.43;;;3.50;;
25127;SDS011;13107;51.304;6.866;2024-01-07T20:27:26;4.70;;;2.90;;
25127;SDS011;13107;51.304;6.866;2024-01-07T20:31:28;5.75;;;3.10;;
25127;SDS011;13107;51.304;6.866;2024-01-07T20:35:32;7.95;;;3.12;;
25127;SDS011;13107;51.304;6.866;2024-01-07T20:39:36;6.85;;;3.28;;
25127;SDS011;13107;51.304;6.866;2024-01-07T20:43:38;6.90;;;3.40;;
25127;SDS011;13107;51.304;6.866;2024-01-07T20:47:40;6.32;;;3.80;;
25127;SDS011;13107;51.304;6.866;2024-01-07T20:51:42;5.10;;;3.30;;
25127;SDS011;13107;51.304;6.866;2024-01-07T20:55:44;6.22;;;3.60;;
25127;SDS011;13107;51.304;6.866;2024-01-07T20:59:46;6.62;;;3.28;;
25127;SDS011;13107;51.304;6.866;2024-01-07T21:03:48;12.32;;;6.20;;
25127;SDS011;13107;51.304;6.866;2024-01-07T21:07:49;8.43;;;4.18;;
25127;SDS011;13107;51.304;6.866;2024-01-07T21:11:51;5.80;;;3.42;;
25127;SDS011;13107;51.304;6.866;2024-01-07T21:15:54;5.50;;;3.95;;
25127;SDS011;13107;51.304;6.866;2024-01-07T21:19:56;8.70;;;3.72;;
25127;SDS011;13107;51.304;6.866;2024-01-07T21:23:57;8.45;;;4.15;;
25127;SDS011;13107;51.304;6.866;2024-01-07T21:27:59;9.50;;;4.60;;
25127;SDS011;13107;51.304;6.866;2024-01-07T21:32:02;9.05;;;4.72;;
25127;SDS011;13107;51.304;6.866;2024-01-07T21:36:04;7.72;;;4.40;;
25127;SDS011;13107;51.304;6.866;2024-01-07T21:40:06;9.25;;;4.60;;
25127;SDS011;13107;51.304;6.866;2024-01-07T21:44:08;9.00;;;5.00;;
25127;SDS011;13107;51.304;6.866;2024-01-07T21:48:11;9.25;;;4.97;;
25127;SDS011;13107;51.304;6.866;2024-01-07T21:52:13;9.52;;;4.87;;
25127;SDS011;13107;51.304;6.866;2024-01-07T21:56:15;8.60;;;5.62;;
25127;SDS011;13107;51.304;6.866;2024-01-07T22:00:17;8.50;;;5.20;;
25127;SDS011;13107;51.304;6.866;2024-01-07T22:04:19;7.75;;;4.90;;
25127;SDS011;13107;51.304;6.866;2024-01-07T22:08:20;7.78;;;4.97;;
25127;SDS011;13107;51.304;6.866;2024-01-07T22:12:22;10.85;;;5.43;;
25127;SDS011;13107;51.304;6.866;2024-01-07T22:16:24;7.35;;;4.95;;
25127;SDS011;13107;51.304;6.866;2024-01-07T22:20:26;7.43;;;4.55;;
25127;SDS011;13107;51.304;6.866;2024-01-07T22:24:28;8.65;;;4.55;;
25127;SDS011;13107;51.304;6.866;2024-01-07T22:28:29;6.55;;;4.03;;
25127;SDS011;13107;51.304;6.866;2024-01-07T22:32:31;5.55;;;3.58;;
25127;SDS011;13107;51.304;6.866;2024-01-07T22:36:33;7.65;;;4.18;;
25127;SDS011;13107;51.304;6.866;2024-01-07T22:40:35;5.12;;;3.28;;
25127;SDS011;13107;51.304;6.866;2024-01-07T22:44:36;6.32;;;3.37;;
25127;SDS011;13107;51.304;6.866;2024-01-07T22:48:38;4.80;;;3.03;;
25127;SDS011;13107;51.304;6.866;2024-01-07T22:52:42;5.53;;;3.42;;
25127;SDS011;13107;51.304;6.866;2024-01-07T22:56:44;5.05;;;3.08;;
25127;SDS011;13107;51.304;6.866;2024-01-07T23:00:46;5.93;;;2.50;;
25127;SDS011;13107;51.304;6.866;2024-01-07T23:04:49;6.00;;;2.67;;
25127;SDS011;13107;51.304;6.866;2024-01-07T23:08:51;4.82;;;2.67;;
25127;SDS011;13107;51.304;6.866;2024-01-07T23:12:53;4.25;;;2.33;;
25127;SDS011;13107;51.304;6.866;2024-01-07T23:16:55;4.28;;;2.50;;
25127;SDS011;13107;51.304;6.866;2024-01-07T23:20:57;3.92;;;2.67;;
25127;SDS011;13107;51.304;6.866;2024-01-07T23:24:59;5.35;;;2.17;;
25127;SDS011;13107;51.304;6.866;2024-01-07T23:29:01;2.90;;;1.80;;
25127;SDS011;13107;51.304;6.866;2024-01-07T23:33:03;3.72;;;1.60;;
25127;SDS011;13107;51.304;6.866;2024-01-07T23:37:06;3.45;;;2.12;;
25127;SDS011;13107;51.304;6.866;2024-01-07T23:41:08;2.60;;;1.48;;
25127;SDS011;13107;51.304;6.866;2024-01-07T23:45:09;3.70;;;1.65;;
25127;SDS011;13107;51.304;6.866;2024-01-07T23:49:11;2.50;;;1.37;;
25127;SDS011;13107;51.304;6.866;2024-01-07T23:53:13;2.67;;;1.37;;
25127;SDS011;13107;51.304;6.866;2024-01-07T23:57:14;2.12;;;1.30;;
